createdAt,value
2019-03-23T00:01:37.393Z,87.50
2019-03-23T00:04:06.780Z,88.10
2019-03-23T00:06:36.110Z,88.40
2019-03-23T00:09:05.751Z,87.40
2019-03-23T00:11:35.239Z,87.50
2019-03-23T00:14:04.707Z,87.80
2019-03-23T00:16:34.120Z,88.20
2019-03-23T00:19:03.506Z,87.90
2019-03-23T00:21:32.829Z,87.30
2019-03-23T00:24:02.214Z,87.60
2019-03-23T00:26:31.545Z,87.50
2019-03-23T00:29:00.849Z,87.40
2019-03-23T00:31:30.178Z,87.50
2019-03-23T00:33:59.500Z,87.10
2019-03-23T00:36:28.804Z,87.70
2019-03-23T00:39:10.667Z,88.10
2019-03-23T00:41:40.002Z,88.40
2019-03-23T00:44:09.324Z,88.10
2019-03-23T00:46:38.648Z,87.90
2019-03-23T00:49:07.953Z,89.20
2019-03-23T00:51:37.277Z,90.30
2019-03-23T00:54:06.608Z,90.40
2019-03-23T00:56:37.010Z,90.00
2019-03-23T00:59:06.308Z,90.10
2019-03-23T01:01:35.639Z,90.00
2019-03-23T01:04:05.012Z,89.70
2019-03-23T01:06:34.337Z,89.30
2019-03-23T01:09:05.411Z,89.10
2019-03-23T01:11:34.901Z,90.10
2019-03-23T01:14:04.276Z,90.30
2019-03-23T01:16:33.608Z,90.20
2019-03-23T01:19:02.913Z,90.10
2019-03-23T01:21:32.311Z,90.30
2019-03-23T01:24:01.629Z,90.30
2019-03-23T01:26:31.025Z,89.70
2019-03-23T01:29:00.323Z,89.90
2019-03-23T01:31:29.657Z,89.70
2019-03-23T01:33:58.959Z,89.30
2019-03-23T01:36:28.295Z,89.80
2019-03-23T01:38:57.679Z,90.00
2019-03-23T01:41:27.012Z,90.00
2019-03-23T01:43:56.312Z,90.00
2019-03-23T01:46:25.631Z,90.00
2019-03-23T01:48:54.945Z,90.20
2019-03-23T01:51:24.342Z,90.30
2019-03-23T01:53:53.676Z,90.30
2019-03-23T01:56:23.448Z,90.70
2019-03-23T01:58:52.764Z,90.10
2019-03-23T02:01:22.084Z,90.70
2019-03-23T02:03:51.399Z,90.50
2019-03-23T02:06:20.726Z,90.40
2019-03-23T02:08:50.042Z,90.60
2019-03-23T02:11:19.364Z,91.10
2019-03-23T02:13:48.664Z,90.90
2019-03-23T02:16:17.999Z,91.00
2019-03-23T02:18:47.327Z,90.80
2019-03-23T02:21:16.635Z,90.40
2019-03-23T02:23:45.960Z,90.80
2019-03-23T02:26:15.288Z,90.80
2019-03-23T02:28:44.634Z,91.00
2019-03-23T02:31:13.940Z,91.10
2019-03-23T02:33:43.343Z,91.20
2019-03-23T02:36:12.671Z,91.40
2019-03-23T02:38:42.051Z,91.90
2019-03-23T02:41:11.473Z,91.60
2019-03-23T02:43:40.776Z,91.70
2019-03-23T02:46:10.173Z,91.50
2019-03-23T02:48:39.588Z,91.30
2019-03-23T02:51:08.976Z,91.60
2019-03-23T02:53:38.313Z,91.40
2019-03-23T02:56:07.679Z,91.40
2019-03-23T02:58:37.015Z,91.30
2019-03-23T03:01:06.314Z,91.60
2019-03-23T03:03:35.665Z,91.40
2019-03-23T03:06:04.982Z,91.50
2019-03-23T03:08:34.279Z,91.60
2019-03-23T03:11:03.795Z,91.40
2019-03-23T03:13:33.169Z,91.50
2019-03-23T03:16:02.506Z,91.60
2019-03-23T03:18:31.808Z,91.40
2019-03-23T03:21:01.208Z,91.80
2019-03-23T03:23:30.545Z,92.00
2019-03-23T03:25:59.870Z,92.40
2019-03-23T03:28:30.172Z,92.50
2019-03-23T03:30:59.544Z,92.40
2019-03-23T03:33:28.925Z,92.40
2019-03-23T03:35:58.364Z,92.50
2019-03-23T03:38:27.696Z,92.50
2019-03-23T03:40:57.040Z,92.70
2019-03-23T03:43:26.335Z,92.10
2019-03-23T03:45:56.522Z,92.00
2019-03-23T03:48:25.829Z,91.50
2019-03-23T03:50:55.174Z,91.70
2019-03-23T03:53:24.504Z,91.70
2019-03-23T03:55:54.996Z,91.90
2019-03-23T03:58:24.340Z,92.00
2019-03-23T04:00:53.649Z,92.60
2019-03-23T04:03:22.966Z,92.00
2019-03-23T04:05:52.305Z,92.00
2019-03-23T04:08:21.715Z,92.00
2019-03-23T04:10:51.204Z,92.20
2019-03-23T04:13:20.522Z,92.50
2019-03-23T04:15:50.022Z,92.80
2019-03-23T04:18:19.422Z,93.20
2019-03-23T04:20:48.742Z,92.80
2019-03-23T04:23:18.566Z,92.40
2019-03-23T04:25:47.956Z,92.50
2019-03-23T04:28:18.372Z,92.80
2019-03-23T04:30:47.692Z,92.90
2019-03-23T04:33:20.094Z,92.70
2019-03-23T04:35:49.396Z,92.30
2019-03-23T04:38:22.919Z,92.30
2019-03-23T04:40:49.724Z,92.60
2019-03-23T04:43:19.081Z,92.80
2019-03-23T04:45:48.385Z,92.60
2019-03-23T04:48:17.786Z,92.60
2019-03-23T04:50:47.106Z,92.60
2019-03-23T04:53:17.392Z,92.60
2019-03-23T04:55:46.793Z,92.50
2019-03-23T04:58:16.099Z,92.60
2019-03-23T05:00:45.420Z,93.20
2019-03-23T05:03:14.751Z,92.90
2019-03-23T05:05:44.113Z,93.10
2019-03-23T05:08:13.436Z,93.00
2019-03-23T05:10:42.768Z,93.20
2019-03-23T05:13:12.098Z,93.40
2019-03-23T05:15:41.423Z,93.40
2019-03-23T05:18:10.755Z,93.10
2019-03-23T05:20:40.084Z,92.80
2019-03-23T05:23:09.397Z,92.60
2019-03-23T05:25:38.736Z,92.70
2019-03-23T05:28:08.033Z,92.90
2019-03-23T05:30:37.371Z,92.90
2019-03-23T05:33:06.672Z,92.80
2019-03-23T05:35:36.008Z,93.00
2019-03-23T05:38:05.335Z,93.20
2019-03-23T05:40:34.641Z,93.30
2019-03-23T05:43:03.963Z,93.20
2019-03-23T05:45:33.293Z,93.00
2019-03-23T05:48:02.615Z,92.50
2019-03-23T05:50:32.021Z,92.70
2019-03-23T05:53:01.320Z,92.80
2019-03-23T05:55:30.669Z,93.20
2019-03-23T05:57:59.983Z,93.20
2019-03-23T06:00:29.360Z,93.10
2019-03-23T06:02:58.659Z,92.70
2019-03-23T06:05:27.983Z,92.60
2019-03-23T06:07:57.283Z,92.60
2019-03-23T06:10:26.611Z,92.30
2019-03-23T06:12:55.928Z,92.40
2019-03-23T06:15:25.324Z,92.50
2019-03-23T06:17:54.622Z,92.40
2019-03-23T06:20:23.948Z,92.30
2019-03-23T06:22:53.277Z,92.50
2019-03-23T06:25:23.567Z,92.20
2019-03-23T06:27:52.958Z,91.90
2019-03-23T06:30:22.296Z,92.10
2019-03-23T06:32:51.643Z,92.20
2019-03-23T06:35:22.084Z,91.90
2019-03-23T06:37:51.395Z,91.90
2019-03-23T06:40:20.735Z,91.80
2019-03-23T06:42:59.447Z,92.00
2019-03-23T06:45:21.441Z,92.00
2019-03-23T06:47:50.769Z,92.00
2019-03-23T06:50:20.237Z,92.00
2019-03-23T06:52:49.599Z,92.00
2019-03-23T06:55:18.933Z,92.10
2019-03-23T06:57:48.340Z,92.10
2019-03-23T07:00:17.780Z,92.00
2019-03-23T07:02:47.136Z,91.80
2019-03-23T07:05:16.607Z,91.80
2019-03-23T07:07:45.989Z,91.80
2019-03-23T07:10:15.473Z,91.90
2019-03-23T07:12:44.797Z,91.90
2019-03-23T07:15:19.911Z,91.90
2019-03-23T07:17:45.318Z,91.60
2019-03-23T07:20:15.216Z,91.60
2019-03-23T07:22:44.552Z,91.20
2019-03-23T07:25:14.120Z,90.80
2019-03-23T07:27:43.425Z,90.70
2019-03-23T07:30:19.521Z,90.50
2019-03-23T07:32:48.929Z,90.30
2019-03-23T07:35:18.396Z,90.10
2019-03-23T07:37:47.695Z,89.50
2019-03-23T07:40:17.244Z,89.40
2019-03-23T07:42:46.539Z,88.50
2019-03-23T07:45:16.900Z,88.00
2019-03-23T07:47:46.237Z,87.80
2019-03-23T07:50:15.814Z,87.80
2019-03-23T07:52:45.881Z,86.10
2019-03-23T07:55:16.731Z,85.10
2019-03-23T07:57:45.442Z,83.90
2019-03-23T08:00:27.175Z,83.60
2019-03-23T08:02:56.501Z,82.40
2019-03-23T08:05:25.824Z,81.60
2019-03-23T08:07:55.125Z,80.10
2019-03-23T08:10:32.713Z,79.60
2019-03-23T08:13:02.368Z,79.30
2019-03-23T08:15:31.779Z,78.60
2019-03-23T08:18:01.326Z,78.10
2019-03-23T08:20:30.718Z,76.70
2019-03-23T08:23:00.039Z,76.20
2019-03-23T08:25:29.363Z,73.60
2019-03-23T08:27:58.697Z,72.50
2019-03-23T08:30:28.141Z,71.10
2019-03-23T08:32:57.666Z,70.00
2019-03-23T08:35:27.024Z,70.00
2019-03-23T08:37:56.364Z,68.20
2019-03-23T08:40:25.703Z,68.10
2019-03-23T08:42:55.002Z,66.40
2019-03-23T08:45:25.503Z,65.60
2019-03-23T08:47:54.836Z,64.40
2019-03-23T08:50:24.173Z,64.30
2019-03-23T08:52:53.492Z,63.30
2019-03-23T08:55:22.827Z,62.20
2019-03-23T08:57:52.133Z,61.80
2019-03-23T09:00:21.488Z,62.10
2019-03-23T09:02:50.820Z,60.80
2019-03-23T09:05:20.163Z,61.60
2019-03-23T09:07:49.528Z,60.80
2019-03-23T09:10:19.004Z,60.20
2019-03-23T09:12:48.414Z,59.30
2019-03-23T09:15:17.732Z,58.40
2019-03-23T09:17:47.129Z,58.30
2019-03-23T09:20:16.568Z,56.90
2019-03-23T09:22:45.909Z,55.70
2019-03-23T09:25:15.213Z,53.80
2019-03-23T09:27:44.535Z,53.80
2019-03-23T09:30:14.378Z,53.70
2019-03-23T09:32:43.723Z,52.20
2019-03-23T09:35:13.127Z,51.50
2019-03-23T09:37:42.426Z,51.10
2019-03-23T09:40:11.769Z,49.90
2019-03-23T09:42:41.112Z,48.20
2019-03-23T09:45:10.558Z,48.50
2019-03-23T09:47:39.929Z,46.80
2019-03-23T09:50:10.578Z,44.70
2019-03-23T09:52:40.087Z,43.10
2019-03-23T09:55:09.794Z,42.70
2019-03-23T09:57:39.200Z,39.30
2019-03-23T10:00:12.823Z,37.90
2019-03-23T10:02:42.189Z,35.80
2019-03-23T10:05:11.660Z,35.30
2019-03-23T10:07:40.967Z,33.80
2019-03-23T10:10:21.028Z,32.70
2019-03-23T10:12:41.762Z,31.90
2019-03-23T10:15:11.153Z,30.00
2019-03-23T10:17:40.473Z,28.50
2019-03-23T10:20:09.940Z,28.50
2019-03-23T10:22:39.313Z,26.90
2019-03-23T10:25:08.728Z,25.50
2019-03-23T10:27:38.022Z,25.90
2019-03-23T10:30:09.381Z,25.80
2019-03-23T10:32:38.697Z,24.40
2019-03-23T10:35:09.541Z,24.80
2019-03-23T10:37:38.863Z,23.30
2019-03-23T10:40:10.918Z,21.40
2019-03-23T10:42:40.271Z,22.50
2019-03-23T10:45:10.620Z,22.00
2019-03-23T10:47:40.008Z,22.70
2019-03-23T10:50:09.614Z,23.30
2019-03-23T10:52:38.976Z,23.20
2019-03-23T10:55:08.707Z,23.10
2019-03-23T10:57:38.039Z,21.50
2019-03-23T11:00:10.866Z,21.70
2019-03-23T11:02:40.388Z,21.80
2019-03-23T11:05:10.841Z,21.40
2019-03-23T11:07:40.181Z,21.00
2019-03-23T11:10:14.192Z,20.60
2019-03-23T11:12:43.572Z,21.20
2019-03-23T11:15:13.531Z,22.80
2019-03-23T11:17:42.937Z,22.00
2019-03-23T11:20:13.250Z,22.50
2019-03-23T11:22:42.597Z,21.00
2019-03-23T11:25:12.362Z,22.00
2019-03-23T11:27:41.720Z,20.10
2019-03-23T11:30:13.745Z,20.10
2019-03-23T11:32:43.066Z,18.80
2019-03-23T11:35:12.559Z,19.10
2019-03-23T11:37:43.382Z,19.70
2019-03-23T11:40:13.171Z,19.10
2019-03-23T11:42:49.653Z,17.70
2019-03-23T11:45:13.903Z,19.00
2019-03-23T11:47:42.454Z,19.00
2019-03-23T11:50:11.914Z,19.90
2019-03-23T11:52:41.227Z,19.50
2019-03-23T11:55:10.999Z,20.40
2019-03-23T11:57:41.377Z,20.10
2019-03-23T12:00:15.655Z,19.60
2019-03-23T12:02:44.965Z,18.70
2019-03-23T12:05:14.627Z,18.80
2019-03-23T12:07:43.972Z,19.90
2019-03-23T12:10:14.467Z,19.10
2019-03-23T12:12:44.001Z,18.70
2019-03-23T12:15:14.384Z,18.20
2019-03-23T12:17:43.688Z,19.10
2019-03-23T12:20:13.368Z,18.10
2019-03-23T12:22:42.694Z,19.60
2019-03-23T12:25:12.262Z,18.40
2019-03-23T12:27:40.798Z,18.10
2019-03-23T12:30:15.951Z,19.10
2019-03-23T12:32:45.356Z,18.60
2019-03-23T12:35:14.661Z,19.50
2019-03-23T12:37:43.988Z,18.40
2019-03-23T12:40:15.546Z,19.20
2019-03-23T12:42:48.030Z,17.80
2019-03-23T12:45:22.259Z,18.50
2019-03-23T12:47:52.548Z,17.60
2019-03-23T12:50:21.893Z,17.30
2019-03-23T12:52:50.424Z,17.30
2019-03-23T12:55:19.747Z,17.40
2019-03-23T12:57:48.290Z,18.20
2019-03-23T13:00:18.963Z,18.80
2019-03-23T13:02:48.291Z,18.70
2019-03-23T13:05:17.604Z,19.10
2019-03-23T13:07:46.953Z,19.30
2019-03-23T13:10:16.406Z,19.80
2019-03-23T13:12:45.746Z,20.50
2019-03-23T13:15:16.413Z,19.80
2019-03-23T13:17:45.892Z,19.00
2019-03-23T13:20:15.817Z,19.70
2019-03-23T13:22:45.290Z,20.90
2019-03-23T13:25:14.595Z,21.30
2019-03-23T13:27:43.938Z,21.80
2019-03-23T13:30:17.236Z,22.50
2019-03-23T13:32:46.532Z,21.60
2019-03-23T13:35:15.922Z,22.70
2019-03-23T13:37:46.121Z,23.20
2019-03-23T13:40:15.691Z,23.40
2019-03-23T13:42:45.002Z,22.00
2019-03-23T13:45:14.754Z,23.00
2019-03-23T13:47:43.365Z,23.60
2019-03-23T13:50:15.888Z,22.50
2019-03-23T13:52:45.192Z,22.30
2019-03-23T13:55:28.375Z,21.60
2019-03-23T13:58:00.787Z,22.00
2019-03-23T14:00:30.092Z,22.70
2019-03-23T14:02:59.426Z,22.30
2019-03-23T14:05:28.772Z,22.50
2019-03-23T14:07:58.068Z,23.00
2019-03-23T14:10:28.126Z,21.40
2019-03-23T14:12:57.464Z,22.80
2019-03-23T14:15:26.791Z,22.60
2019-03-23T14:17:56.107Z,22.70
2019-03-23T14:20:25.439Z,24.30
2019-03-23T14:23:02.383Z,23.90
2019-03-23T14:25:26.098Z,24.60
2019-03-23T14:27:55.582Z,23.80
2019-03-23T14:30:26.956Z,24.90
2019-03-23T14:32:56.285Z,24.40
2019-03-23T14:35:25.687Z,24.50
2019-03-23T14:37:55.011Z,24.60
2019-03-23T14:40:24.319Z,23.50
2019-03-23T14:42:53.664Z,24.40
2019-03-23T14:45:24.051Z,24.70
2019-03-23T14:47:53.388Z,25.80
2019-03-23T14:50:22.720Z,26.00
2019-03-23T14:52:52.029Z,25.10
2019-03-23T14:55:21.391Z,24.80
2019-03-23T14:57:50.772Z,26.20
2019-03-23T15:00:31.413Z,27.40
2019-03-23T15:03:00.781Z,28.30
2019-03-23T15:05:30.197Z,28.50
2019-03-23T15:07:59.545Z,29.10
2019-03-23T15:10:28.855Z,29.80
2019-03-23T15:12:58.185Z,29.90
2019-03-23T15:15:27.496Z,30.40
2019-03-23T15:17:56.871Z,30.50
2019-03-23T15:20:26.186Z,30.80
2019-03-23T15:22:55.536Z,31.00
2019-03-23T15:25:25.156Z,31.50
2019-03-23T15:27:54.408Z,31.90
2019-03-23T15:30:23.714Z,31.60
2019-03-23T15:32:53.053Z,32.50
2019-03-23T15:35:22.381Z,31.90
2019-03-23T15:37:51.730Z,32.10
2019-03-23T15:40:21.042Z,31.40
2019-03-23T15:42:50.493Z,32.60
2019-03-23T15:45:19.837Z,33.00
2019-03-23T15:47:49.140Z,33.00
2019-03-23T15:50:18.472Z,33.30
2019-03-23T15:52:47.804Z,34.20
2019-03-23T15:55:17.205Z,32.50
2019-03-23T15:57:46.538Z,33.00
2019-03-23T16:00:16.280Z,32.50
2019-03-23T16:02:45.680Z,32.40
2019-03-23T16:05:15.376Z,33.10
2019-03-23T16:07:44.793Z,33.40
2019-03-23T16:10:14.267Z,34.30
2019-03-23T16:12:43.585Z,33.90
2019-03-23T16:15:13.459Z,34.40
2019-03-23T16:17:42.761Z,33.80
2019-03-23T16:20:15.295Z,34.80
2019-03-23T16:22:44.634Z,34.90
2019-03-23T16:25:14.008Z,35.30
2019-03-23T16:27:43.350Z,35.30
2019-03-23T16:30:14.340Z,35.40
2019-03-23T16:32:43.821Z,35.70
2019-03-23T16:35:13.235Z,35.70
2019-03-23T16:37:42.582Z,35.60
2019-03-23T16:40:12.825Z,36.00
2019-03-23T16:42:45.483Z,36.20
2019-03-23T16:45:13.343Z,36.50
2019-03-23T16:47:42.751Z,36.80
2019-03-23T16:50:12.547Z,36.50
2019-03-23T16:52:41.939Z,37.10
2019-03-23T16:55:11.617Z,36.60
2019-03-23T16:57:40.938Z,37.20
2019-03-23T17:00:12.380Z,37.70
2019-03-23T17:02:41.939Z,38.10
2019-03-23T17:05:11.625Z,38.00
2019-03-23T17:07:41.025Z,38.60
2019-03-23T17:10:11.175Z,38.70
2019-03-23T17:12:40.591Z,39.40
2019-03-23T17:15:10.163Z,39.80
2019-03-23T17:17:39.513Z,41.30
2019-03-23T17:20:09.475Z,42.70
2019-03-23T17:22:38.911Z,42.80
2019-03-23T17:25:08.606Z,43.50
2019-03-23T17:27:38.108Z,43.90
2019-03-23T17:30:08.279Z,44.50
2019-03-23T17:32:38.900Z,44.90
2019-03-23T17:35:10.969Z,45.40
2019-03-23T17:37:40.336Z,46.30
2019-03-23T17:40:10.185Z,46.80
2019-03-23T17:42:39.559Z,47.10
2019-03-23T17:45:09.273Z,48.00
2019-03-23T17:47:38.962Z,49.90
2019-03-23T17:50:08.604Z,49.90
2019-03-23T17:52:37.987Z,50.50
2019-03-23T17:55:09.261Z,51.50
2019-03-23T17:57:38.710Z,51.70
2019-03-23T18:00:09.176Z,51.90
2019-03-23T18:02:38.895Z,53.10
2019-03-23T18:05:08.868Z,52.80
2019-03-23T18:07:38.325Z,52.30
2019-03-23T18:10:08.801Z,52.80
2019-03-23T18:12:38.279Z,52.40
2019-03-23T18:15:09.015Z,54.40
2019-03-23T18:17:37.551Z,54.20
2019-03-23T18:20:07.743Z,54.70
2019-03-23T18:22:37.315Z,55.00
2019-03-23T18:25:08.413Z,55.70
2019-03-23T18:27:37.872Z,56.10
2019-03-23T18:30:15.888Z,56.20
2019-03-23T18:32:45.291Z,55.80
2019-03-23T18:35:15.862Z,55.50
2019-03-23T18:37:45.199Z,56.10
2019-03-23T18:40:15.477Z,56.80
2019-03-23T18:42:44.863Z,56.60
2019-03-23T18:45:14.186Z,56.80
2019-03-23T18:47:43.581Z,58.20
2019-03-23T18:50:12.957Z,57.60
2019-03-23T18:52:42.371Z,58.10
2019-03-23T18:55:11.902Z,58.90
2019-03-23T18:57:41.300Z,59.10
2019-03-23T19:00:11.968Z,59.10
2019-03-23T19:02:41.355Z,60.20
2019-03-23T19:05:10.892Z,60.90
2019-03-23T19:07:41.240Z,60.30
2019-03-23T19:10:11.127Z,60.20
2019-03-23T19:12:40.430Z,60.50
2019-03-23T19:15:10.201Z,61.30
2019-03-23T19:17:39.580Z,61.20
2019-03-23T19:20:09.160Z,61.90
2019-03-23T19:22:38.494Z,62.70
2019-03-23T19:27:19.917Z,61.80
2019-03-23T19:29:49.299Z,63.60
2019-03-23T19:32:18.807Z,63.80
2019-03-23T19:34:48.120Z,63.40
2019-03-23T19:37:17.500Z,63.30
2019-03-23T19:39:46.874Z,63.80
2019-03-23T19:42:16.208Z,65.10
2019-03-23T19:44:45.541Z,65.20
2019-03-23T19:47:14.991Z,65.70
2019-03-23T19:49:44.324Z,65.10
2019-03-23T19:52:13.626Z,65.20
2019-03-23T19:54:42.979Z,65.60
2019-03-23T19:57:12.319Z,66.50
2019-03-23T19:59:41.656Z,66.50
2019-03-23T20:02:11.004Z,66.00
2019-03-23T20:04:40.346Z,66.50
2019-03-23T20:07:09.741Z,67.40
2019-03-23T20:09:39.056Z,67.10
2019-03-23T20:12:10.019Z,66.40
2019-03-23T20:14:41.625Z,66.90
2019-03-23T20:17:10.398Z,66.60
2019-03-23T20:19:39.788Z,66.60
2019-03-23T20:22:09.124Z,66.90
2019-03-23T20:24:38.426Z,67.00
2019-03-23T20:27:07.872Z,67.40
2019-03-23T20:29:37.178Z,67.60
2019-03-23T20:32:07.576Z,68.40
2019-03-23T20:34:37.075Z,68.30
2019-03-23T20:37:08.186Z,67.70
2019-03-23T20:39:50.211Z,67.90
2019-03-23T20:42:19.543Z,67.60
2019-03-23T20:44:48.840Z,68.60
2019-03-23T20:47:18.176Z,69.50
2019-03-23T20:49:47.620Z,70.20
2019-03-23T20:52:17.066Z,70.00
2019-03-23T20:54:46.506Z,70.40
2019-03-23T20:57:23.426Z,70.20
2019-03-23T20:59:46.858Z,71.00
2019-03-23T21:02:16.165Z,71.30
2019-03-23T21:04:45.567Z,71.50
2019-03-23T21:07:14.923Z,71.80
2019-03-23T21:09:44.224Z,72.00
2019-03-23T21:12:13.552Z,72.10
2019-03-23T21:14:42.984Z,72.30
2019-03-23T21:17:12.292Z,73.10
2019-03-23T21:19:41.622Z,72.20
2019-03-23T21:22:10.922Z,72.60
2019-03-23T21:24:40.255Z,73.10
2019-03-23T21:27:09.559Z,72.30
2019-03-23T21:29:41.058Z,72.70
2019-03-23T21:32:09.897Z,73.50
2019-03-23T21:34:39.227Z,73.20
2019-03-23T21:37:08.526Z,73.30
2019-03-23T21:39:38.934Z,73.00
2019-03-23T21:42:08.244Z,73.00
2019-03-23T21:44:37.577Z,74.70
2019-03-23T21:47:06.889Z,73.70
2019-03-23T21:49:36.219Z,74.00
2019-03-23T21:52:05.600Z,73.90
2019-03-23T21:54:34.935Z,74.30
2019-03-23T21:57:04.310Z,75.20
2019-03-23T21:59:33.696Z,74.20
2019-03-23T22:02:02.995Z,75.50
2019-03-23T22:04:32.320Z,75.80
2019-03-23T22:07:01.642Z,75.90
2019-03-23T22:09:30.944Z,76.40
2019-03-23T22:12:00.345Z,77.20
2019-03-23T22:14:40.993Z,76.70
2019-03-23T22:17:01.432Z,77.30
2019-03-23T22:19:30.759Z,77.70
2019-03-23T22:22:00.137Z,78.00
2019-03-23T22:24:29.468Z,78.40
2019-03-23T22:26:58.760Z,78.60
2019-03-23T22:29:28.145Z,78.30
2019-03-23T22:31:57.443Z,78.60
2019-03-23T22:34:26.771Z,79.20
2019-03-23T22:36:56.127Z,79.10
2019-03-23T22:39:25.458Z,78.70
2019-03-23T22:41:54.756Z,79.10
2019-03-23T22:44:24.066Z,79.50
2019-03-23T22:46:53.475Z,78.90
2019-03-23T22:49:22.805Z,79.20
2019-03-23T22:51:52.128Z,79.80
2019-03-23T22:54:21.430Z,80.60
2019-03-23T22:56:50.832Z,81.20
2019-03-23T22:59:20.170Z,82.70
2019-03-23T23:01:49.540Z,83.00
2019-03-23T23:04:19.947Z,83.50
2019-03-23T23:06:49.288Z,82.50
2019-03-23T23:09:18.590Z,82.30
2019-03-23T23:11:47.930Z,82.20
2019-03-23T23:14:18.335Z,82.10
2019-03-23T23:16:47.684Z,82.50
2019-03-23T23:19:16.983Z,83.10
2019-03-23T23:21:46.307Z,82.60
2019-03-23T23:24:15.612Z,83.20
2019-03-23T23:26:44.939Z,83.80
2019-03-23T23:29:14.316Z,83.00
2019-03-23T23:31:43.636Z,83.80
2019-03-23T23:34:13.003Z,83.80
2019-03-23T23:36:42.335Z,82.80
2019-03-23T23:39:11.631Z,82.30
2019-03-23T23:41:40.960Z,82.50
2019-03-23T23:44:11.342Z,82.10
2019-03-23T23:46:40.664Z,82.40
2019-03-23T23:49:10.073Z,82.30
2019-03-23T23:51:49.607Z,82.60
2019-03-23T23:54:10.396Z,83.20
2019-03-23T23:56:39.793Z,83.60
2019-03-23T23:59:09.100Z,83.90
